createdAt,value
2022-10-10T00:01:15.436Z,5.93
2022-10-10T00:03:45.434Z,6.27
2022-10-10T00:06:13.873Z,5.20
2022-10-10T00:08:42.087Z,5.03
2022-10-10T00:11:15.540Z,5.43
2022-10-10T00:13:44.333Z,6.17
2022-10-10T00:16:12.756Z,5.10
2022-10-10T00:18:41.485Z,6.53
2022-10-10T00:21:11.228Z,5.93
2022-10-10T00:23:39.626Z,5.27
2022-10-10T00:26:09.285Z,5.30
2022-10-10T00:28:39.055Z,6.17
2022-10-10T00:33:54.827Z,5.57
2022-10-10T00:36:24.542Z,5.60
2022-10-10T00:38:54.950Z,6.10
2022-10-10T00:41:29.461Z,4.93
2022-10-10T00:44:08.698Z,5.47
2022-10-10T00:46:37.778Z,5.37
2022-10-10T00:49:08.963Z,5.70
2022-10-10T00:51:38.691Z,5.90
2022-10-10T00:54:08.499Z,5.13
2022-10-10T00:56:39.119Z,5.20
2022-10-10T00:59:08.719Z,5.30
2022-10-10T01:01:37.083Z,5.40
2022-10-10T01:04:05.497Z,6.00
2022-10-10T01:06:33.846Z,5.47
2022-10-10T01:09:05.111Z,5.40
2022-10-10T01:11:44.062Z,5.03
2022-10-10T01:14:17.837Z,5.83
2022-10-10T01:16:52.748Z,5.60
2022-10-10T01:19:45.478Z,5.03
2022-10-10T01:22:19.648Z,5.33
2022-10-10T01:24:56.442Z,5.60
2022-10-10T01:27:32.292Z,5.40
2022-10-10T01:30:06.527Z,5.47
2022-10-10T01:32:36.950Z,5.33
2022-10-10T01:35:12.427Z,5.57
2022-10-10T01:37:51.055Z,5.20
2022-10-10T01:40:22.889Z,5.47
2022-10-10T01:42:52.948Z,5.60
2022-10-10T01:45:24.058Z,6.07
2022-10-10T01:47:55.833Z,5.60
2022-10-10T01:50:25.621Z,5.77
2022-10-10T01:52:59.253Z,5.40
2022-10-10T01:55:38.174Z,5.83
2022-10-10T01:58:15.662Z,6.00
2022-10-10T02:00:49.524Z,5.60
2022-10-10T02:03:19.791Z,6.20
2022-10-10T02:05:48.544Z,5.87
2022-10-10T02:08:18.410Z,5.60
2022-10-10T02:10:50.230Z,5.40
2022-10-10T02:13:18.648Z,5.70
2022-10-10T02:15:50.292Z,6.27
2022-10-10T02:18:19.429Z,5.57
2022-10-10T02:20:47.602Z,5.83
2022-10-10T02:23:17.646Z,5.57
2022-10-10T02:25:46.084Z,5.50
2022-10-10T02:28:16.580Z,5.63
2022-10-10T02:30:48.294Z,5.80
2022-10-10T02:33:20.610Z,6.60
2022-10-10T02:35:49.523Z,6.23
2022-10-10T02:38:17.645Z,5.10
2022-10-10T02:40:47.117Z,6.07
2022-10-10T02:43:15.565Z,5.80
2022-10-10T02:45:43.874Z,5.57
2022-10-10T02:48:13.695Z,5.37
2022-10-10T02:50:42.229Z,5.43
2022-10-10T02:53:10.919Z,5.77
2022-10-10T02:55:39.466Z,6.10
2022-10-10T02:58:14.284Z,5.27
2022-10-10T03:00:44.897Z,6.10
2022-10-10T03:03:14.552Z,5.43
2022-10-10T03:05:43.134Z,5.80
2022-10-10T03:08:12.020Z,6.20
2022-10-10T03:10:40.402Z,6.00
2022-10-10T03:13:08.669Z,5.30
2022-10-10T03:15:37.351Z,6.10
2022-10-10T03:18:07.070Z,5.87
2022-10-10T03:20:36.757Z,5.87
2022-10-10T03:23:05.019Z,6.40
2022-10-10T03:25:34.917Z,5.83
2022-10-10T03:28:05.971Z,5.60
2022-10-10T03:30:36.619Z,6.33
2022-10-10T03:33:04.981Z,5.30
2022-10-10T03:35:33.329Z,5.50
2022-10-10T03:38:03.206Z,5.87
2022-10-10T03:40:35.651Z,6.40
2022-10-10T03:43:03.920Z,6.10
2022-10-10T03:45:32.094Z,5.87
2022-10-10T03:48:00.367Z,5.40
2022-10-10T03:50:28.558Z,6.13
2022-10-10T03:52:56.752Z,5.57
2022-10-10T03:55:26.468Z,6.07
2022-10-10T03:57:54.618Z,5.77
2022-10-10T04:00:22.963Z,6.20
2022-10-10T04:03:00.895Z,6.03
2022-10-10T04:05:29.411Z,6.50
2022-10-10T04:07:57.906Z,6.50
2022-10-10T04:10:29.057Z,5.47
2022-10-10T04:12:58.662Z,6.27
2022-10-10T04:15:26.894Z,5.73
2022-10-10T04:17:55.257Z,5.70
2022-10-10T04:20:25.642Z,6.07
2022-10-10T04:22:53.968Z,6.47
2022-10-10T04:25:22.520Z,5.53
2022-10-10T04:27:58.505Z,6.50
2022-10-10T04:30:29.175Z,6.37
2022-10-10T04:33:10.020Z,6.57
2022-10-10T04:35:38.502Z,6.60
2022-10-10T04:38:07.121Z,6.23
2022-10-10T04:40:36.611Z,6.60
2022-10-10T04:43:08.135Z,6.53
2022-10-10T04:45:37.692Z,6.97
2022-10-10T04:48:06.900Z,6.80
2022-10-10T04:50:35.288Z,6.37
2022-10-10T04:53:03.650Z,6.70
2022-10-10T04:55:32.014Z,6.90
2022-10-10T04:58:00.286Z,7.63
2022-10-10T05:00:30.037Z,6.63
2022-10-10T05:02:58.386Z,6.70
2022-10-10T05:05:26.562Z,6.33
2022-10-10T05:07:56.399Z,6.30
2022-10-10T05:10:24.942Z,6.83
2022-10-10T05:12:53.406Z,6.57
2022-10-10T05:15:23.368Z,6.73
2022-10-10T05:17:53.083Z,6.33
2022-10-10T05:20:22.049Z,6.70
2022-10-10T05:22:50.710Z,6.87
2022-10-10T05:25:19.437Z,6.60
2022-10-10T05:27:47.714Z,6.87
2022-10-10T05:30:15.975Z,6.53
2022-10-10T05:32:48.411Z,6.83
2022-10-10T05:35:18.724Z,6.43
2022-10-10T05:37:46.878Z,8.40
2022-10-10T05:40:15.143Z,6.43
2022-10-10T05:42:43.853Z,6.90
2022-10-10T05:45:12.770Z,7.07
2022-10-10T05:47:40.979Z,6.87
2022-10-10T05:50:10.246Z,6.83
2022-10-10T05:52:42.741Z,6.43
2022-10-10T05:55:11.489Z,7.17
2022-10-10T05:57:39.795Z,6.83
2022-10-10T06:00:10.541Z,8.10
2022-10-10T06:02:47.281Z,7.70
2022-10-10T06:05:20.963Z,7.57
2022-10-10T06:08:05.885Z,7.03
2022-10-10T06:10:44.702Z,6.97
2022-10-10T06:13:29.733Z,7.50
2022-10-10T06:16:01.027Z,7.10
2022-10-10T06:18:37.509Z,7.60
2022-10-10T06:21:07.002Z,7.20
2022-10-10T06:23:38.482Z,7.47
2022-10-10T06:26:06.643Z,7.40
2022-10-10T06:28:43.307Z,7.43
2022-10-10T06:31:17.451Z,6.60
2022-10-10T06:33:48.045Z,6.90
2022-10-10T06:36:16.620Z,7.57
2022-10-10T06:38:49.529Z,7.40
2022-10-10T06:41:21.464Z,6.87
2022-10-10T06:43:54.789Z,7.77
2022-10-10T06:46:31.642Z,7.53
2022-10-10T06:49:01.855Z,7.80
2022-10-10T06:51:34.213Z,7.57
2022-10-10T06:54:13.341Z,8.63
2022-10-10T06:56:41.564Z,7.43
2022-10-10T06:59:14.100Z,7.40
2022-10-10T07:01:46.204Z,8.20
2022-10-10T07:04:14.502Z,7.40
2022-10-10T07:06:44.297Z,7.77
2022-10-10T07:09:20.215Z,9.40
2022-10-10T07:11:48.545Z,8.67
2022-10-10T07:14:16.779Z,7.67
2022-10-10T07:16:45.888Z,8.10
2022-10-10T07:19:15.750Z,7.27
2022-10-10T07:21:49.483Z,7.07
2022-10-10T07:24:19.290Z,6.57
2022-10-10T07:26:49.233Z,7.03
2022-10-10T07:29:22.743Z,7.20
2022-10-10T07:31:51.762Z,7.80
2022-10-10T07:34:27.097Z,7.33
2022-10-10T07:36:55.628Z,6.63
2022-10-10T07:39:27.980Z,6.83
2022-10-10T07:41:56.226Z,6.80
2022-10-10T07:44:30.177Z,7.00
2022-10-10T07:47:00.776Z,6.90
2022-10-10T07:49:36.512Z,6.73
2022-10-10T07:52:04.988Z,6.70
2022-10-10T07:54:39.423Z,6.17
2022-10-10T07:57:07.808Z,7.27
2022-10-10T07:59:47.482Z,6.13
2022-10-10T08:02:15.894Z,6.30
2022-10-10T08:04:44.346Z,7.00
2022-10-10T08:07:15.673Z,7.07
2022-10-10T08:09:58.654Z,6.17
2022-10-10T08:12:27.140Z,6.67
2022-10-10T08:14:58.655Z,6.03
2022-10-10T08:17:35.813Z,6.30
2022-10-10T08:20:09.989Z,7.53
2022-10-10T08:22:38.189Z,7.33
2022-10-10T08:25:09.444Z,6.00
2022-10-10T08:27:37.761Z,6.40
2022-10-10T08:30:08.276Z,6.60
2022-10-10T08:32:36.572Z,7.53
2022-10-10T08:35:05.218Z,7.30
2022-10-10T08:37:37.579Z,6.50
2022-10-10T08:40:14.311Z,6.47
2022-10-10T08:42:54.038Z,6.47
2022-10-10T08:45:23.657Z,6.53
2022-10-10T08:47:55.073Z,7.07
2022-10-10T08:50:30.010Z,6.80
2022-10-10T08:53:05.366Z,6.93
2022-10-10T08:55:43.086Z,6.30
2022-10-10T08:58:13.493Z,6.67
2022-10-10T09:00:48.014Z,7.10
2022-10-10T09:03:23.179Z,6.60
2022-10-10T09:06:06.524Z,6.73
2022-10-10T09:08:44.352Z,7.10
2022-10-10T09:11:20.954Z,7.37
2022-10-10T09:13:52.444Z,7.03
2022-10-10T09:16:25.704Z,7.50
2022-10-10T09:19:01.327Z,6.53
2022-10-10T09:21:30.722Z,6.90
2022-10-10T09:24:01.179Z,6.23
2022-10-10T09:26:32.630Z,5.93
2022-10-10T09:29:09.025Z,6.70
2022-10-10T09:31:38.939Z,5.90
2022-10-10T09:34:15.650Z,6.63
2022-10-10T09:36:48.806Z,6.60
2022-10-10T09:39:31.502Z,6.87
2022-10-10T09:42:18.502Z,6.33
2022-10-10T09:44:51.074Z,6.17
2022-10-10T09:47:23.629Z,6.23
2022-10-10T09:49:57.875Z,6.83
2022-10-10T09:52:28.064Z,6.97
2022-10-10T09:55:00.874Z,6.30
2022-10-10T09:57:35.288Z,6.37
2022-10-10T10:00:28.809Z,6.27
2022-10-10T10:03:06.567Z,6.07
2022-10-10T10:05:45.677Z,6.40
2022-10-10T10:08:30.332Z,6.13
2022-10-10T10:10:59.548Z,6.23
2022-10-10T10:13:32.403Z,6.70
2022-10-10T10:16:10.215Z,7.37
2022-10-10T10:18:47.226Z,5.53
2022-10-10T10:21:20.475Z,6.53
2022-10-10T10:23:54.179Z,6.50
2022-10-10T10:26:24.177Z,7.00
2022-10-10T10:28:57.593Z,6.63
2022-10-10T10:31:49.635Z,6.97
2022-10-10T10:34:39.270Z,6.30
2022-10-10T10:37:14.907Z,6.83
2022-10-10T10:39:47.709Z,6.63
2022-10-10T10:42:23.479Z,7.17
2022-10-10T10:45:05.370Z,7.60
2022-10-10T10:47:40.003Z,7.17
2022-10-10T10:50:26.068Z,7.40
2022-10-10T10:53:01.097Z,7.37
2022-10-10T10:55:39.403Z,7.23
2022-10-10T11:01:56.694Z,6.00
2022-10-10T11:05:19.811Z,6.17
2022-10-10T11:07:29.884Z,6.73
2022-10-10T11:10:00.373Z,5.80
2022-10-10T11:12:45.049Z,6.03
2022-10-10T11:15:19.612Z,7.03
2022-10-10T11:17:54.370Z,7.10
2022-10-10T11:20:29.750Z,6.90
2022-10-10T11:23:01.133Z,8.10
2022-10-10T11:25:32.886Z,7.80
2022-10-10T11:28:02.908Z,7.83
2022-10-10T11:30:36.412Z,7.90
2022-10-10T11:33:08.741Z,7.20
2022-10-10T11:35:42.142Z,8.17
2022-10-10T11:38:16.513Z,8.03
2022-10-10T11:40:49.322Z,7.50
2022-10-10T11:43:22.819Z,7.17
2022-10-10T11:46:01.991Z,8.30
2022-10-10T11:48:37.295Z,7.37
2022-10-10T11:51:20.696Z,6.80
2022-10-10T11:53:49.120Z,7.17
2022-10-10T11:56:23.238Z,6.13
2022-10-10T11:59:00.581Z,4.90
2022-10-10T12:01:39.109Z,5.50
2022-10-10T12:04:08.762Z,4.60
2022-10-10T12:06:47.070Z,2.83
2022-10-10T12:09:19.343Z,2.63
2022-10-10T12:11:49.906Z,2.63
2022-10-10T12:14:19.201Z,2.63
2022-10-10T12:16:58.402Z,2.00
2022-10-10T12:19:28.967Z,1.73
2022-10-10T12:22:01.502Z,2.33
2022-10-10T12:24:30.411Z,1.57
2022-10-10T12:27:56.955Z,0.90
2022-10-10T12:30:43.521Z,1.27
2022-10-10T12:33:47.236Z,0.73
2022-10-10T12:37:09.265Z,1.07
2022-10-10T12:40:25.429Z,0.80
2022-10-10T12:43:31.615Z,0.97
2022-10-10T12:46:37.799Z,0.53
2022-10-10T12:49:27.349Z,0.40
2022-10-10T12:52:13.980Z,0.40
2022-10-10T12:54:55.238Z,0.50
2022-10-10T12:57:41.822Z,0.77
2022-10-10T13:00:28.892Z,0.60
2022-10-10T13:02:58.962Z,0.50
2022-10-10T13:05:38.641Z,0.90
2022-10-10T13:08:23.105Z,0.60
2022-10-10T13:11:11.014Z,0.80
2022-10-10T13:13:59.099Z,0.47
2022-10-10T13:16:51.498Z,0.80
2022-10-10T13:19:27.995Z,0.80
2022-10-10T13:21:56.775Z,0.80
2022-10-10T13:24:43.319Z,0.60
2022-10-10T13:27:37.490Z,1.80
2022-10-10T13:30:39.528Z,1.30
2022-10-10T13:33:27.087Z,1.23
2022-10-10T13:36:06.494Z,1.50
2022-10-10T13:38:58.385Z,1.53
2022-10-10T13:41:57.995Z,1.60
2022-10-10T13:44:44.023Z,1.40
2022-10-10T13:48:10.440Z,2.37
2022-10-10T13:54:51.301Z,1.50
2022-10-10T13:58:02.206Z,2.77
2022-10-10T14:00:33.142Z,2.53
2022-10-10T14:03:19.603Z,2.47
2022-10-10T14:08:44.040Z,1.93
2022-10-10T14:11:17.387Z,2.33
2022-10-10T14:13:52.290Z,2.10
2022-10-10T14:16:24.825Z,3.07
2022-10-10T14:18:53.100Z,2.87
2022-10-10T14:21:24.400Z,5.00
2022-10-10T14:24:05.282Z,2.47
2022-10-10T14:26:33.490Z,3.17
2022-10-10T14:29:03.539Z,2.07
2022-10-10T14:31:31.975Z,2.77
2022-10-10T14:34:05.187Z,2.10
2022-10-10T14:36:33.362Z,3.47
2022-10-10T14:39:01.651Z,2.53
2022-10-10T14:41:30.201Z,2.37
2022-10-10T14:43:58.587Z,2.20
2022-10-10T14:46:38.893Z,2.27
2022-10-10T14:49:10.973Z,2.10
2022-10-10T14:51:47.523Z,2.07
2022-10-10T14:54:22.300Z,1.87
2022-10-10T14:57:06.909Z,2.10
2022-10-10T14:59:46.180Z,2.13
2022-10-10T15:02:20.453Z,2.17
2022-10-10T15:04:52.148Z,1.83
2022-10-10T15:07:26.355Z,2.10
2022-10-10T15:12:48.904Z,1.83
2022-10-10T15:15:26.151Z,1.27
2022-10-10T15:17:55.905Z,1.87
2022-10-10T15:20:32.150Z,1.67
2022-10-10T15:23:00.794Z,1.90
2022-10-10T15:25:33.889Z,1.63
2022-10-10T15:28:07.596Z,1.77
2022-10-10T15:30:54.140Z,1.77
2022-10-10T15:34:06.274Z,2.07
2022-10-10T15:36:53.970Z,1.53
2022-10-10T15:39:31.369Z,2.43
2022-10-10T15:42:09.353Z,2.07
2022-10-10T15:44:49.627Z,1.90
2022-10-10T15:47:22.369Z,1.70
2022-10-10T15:49:56.036Z,2.47
2022-10-10T15:52:27.177Z,1.87
2022-10-10T15:55:15.430Z,1.90
2022-10-10T15:57:56.717Z,1.77
2022-10-10T16:00:29.740Z,1.90
2022-10-10T16:03:00.091Z,1.80
2022-10-10T16:05:38.166Z,1.80
2022-10-10T16:08:09.755Z,1.60
2022-10-10T16:10:44.917Z,2.40
2022-10-10T16:13:16.812Z,2.37
2022-10-10T16:15:49.696Z,2.00
2022-10-10T16:18:19.175Z,2.17
2022-10-10T16:20:52.365Z,2.10
2022-10-10T16:23:20.862Z,2.17
2022-10-10T16:25:52.037Z,1.53
2022-10-10T16:28:29.591Z,1.97
2022-10-10T16:30:58.183Z,1.63
2022-10-10T16:33:27.126Z,1.93
2022-10-10T16:36:00.416Z,2.33
2022-10-10T16:38:31.256Z,1.90
2022-10-10T16:41:23.829Z,1.97
2022-10-10T16:44:01.370Z,1.80
2022-10-10T16:46:29.849Z,1.80
2022-10-10T16:49:01.532Z,2.60
2022-10-10T16:51:31.766Z,2.13
2022-10-10T16:54:06.017Z,2.27
2022-10-10T16:56:36.827Z,1.60
2022-10-10T16:59:05.609Z,2.00
2022-10-10T17:01:41.094Z,2.00
2022-10-10T17:04:11.483Z,2.20
2022-10-10T17:06:41.389Z,7.13
2022-10-10T17:09:27.150Z,5.50
2022-10-10T17:11:57.303Z,3.10
2022-10-10T17:14:30.656Z,3.13
2022-10-10T17:17:16.702Z,4.03
2022-10-10T17:19:45.245Z,2.63
2022-10-10T17:22:25.774Z,1.73
2022-10-10T17:24:54.194Z,2.23
2022-10-10T17:27:22.714Z,1.70
2022-10-10T17:29:53.378Z,2.23
2022-10-10T17:32:21.863Z,2.47
2022-10-10T17:34:50.252Z,2.50
2022-10-10T17:37:23.063Z,2.80
2022-10-10T17:39:51.510Z,2.37
2022-10-10T17:42:20.086Z,2.50
2022-10-10T17:44:52.581Z,3.17
2022-10-10T17:47:24.380Z,2.10
2022-10-10T17:49:52.748Z,2.40
2022-10-10T17:52:24.908Z,3.70
2022-10-10T17:54:53.298Z,3.87
2022-10-10T17:57:21.698Z,3.30
2022-10-10T18:02:32.467Z,4.20
2022-10-10T18:05:04.004Z,3.90
2022-10-10T18:07:33.810Z,3.27
2022-10-10T18:10:02.431Z,3.90
2022-10-10T18:12:30.595Z,4.17
2022-10-10T18:15:00.588Z,3.73
2022-10-10T18:17:28.920Z,4.10
2022-10-10T18:19:57.372Z,3.50
2022-10-10T18:22:25.829Z,5.80
2022-10-10T18:24:55.398Z,4.53
2022-10-10T18:27:23.719Z,3.10
2022-10-10T18:29:54.233Z,3.57
2022-10-10T18:32:23.883Z,2.63
2022-10-10T18:34:52.281Z,3.20
2022-10-10T18:37:20.577Z,3.20
2022-10-10T18:42:33.507Z,2.87
2022-10-10T18:45:01.700Z,3.27
2022-10-10T18:47:32.469Z,2.80
2022-10-10T18:50:00.829Z,2.63
2022-10-10T18:52:32.762Z,3.20
2022-10-10T18:55:01.151Z,2.80
2022-10-10T18:57:29.427Z,2.37
2022-10-10T19:00:03.023Z,2.60
2022-10-10T19:02:40.195Z,3.80
2022-10-10T19:05:08.695Z,2.97
2022-10-10T19:07:37.038Z,3.17
2022-10-10T19:10:05.645Z,2.53
2022-10-10T19:12:34.207Z,3.50
2022-10-10T19:15:07.101Z,2.43
2022-10-10T19:17:49.952Z,2.60
2022-10-10T19:20:19.747Z,2.80
2022-10-10T19:22:51.015Z,3.90
2022-10-10T19:25:19.397Z,3.27
2022-10-10T19:27:48.097Z,2.57
2022-10-10T19:30:18.117Z,2.27
2022-10-10T19:35:15.702Z,2.87
2022-10-10T19:37:44.159Z,2.80
2022-10-10T19:40:15.105Z,3.50
2022-10-10T19:42:43.394Z,2.77
2022-10-10T19:45:13.177Z,2.47
2022-10-10T19:47:43.092Z,2.57
2022-10-10T19:50:13.512Z,2.00
2022-10-10T19:52:41.930Z,2.60
2022-10-10T19:55:18.495Z,2.63
2022-10-10T19:57:46.958Z,2.50
2022-10-10T20:00:16.348Z,3.30
2022-10-10T20:02:47.072Z,3.53
2022-10-10T20:05:18.841Z,3.43
2022-10-10T20:07:47.439Z,3.17
2022-10-10T20:10:19.150Z,2.53
2022-10-10T20:12:49.039Z,2.57
2022-10-10T20:15:22.605Z,3.07
2022-10-10T20:17:52.685Z,2.60
2022-10-10T20:20:22.182Z,2.60
2022-10-10T20:22:50.826Z,2.87
2022-10-10T20:25:21.782Z,2.63
2022-10-10T20:27:50.156Z,2.83
2022-10-10T20:30:23.971Z,2.80
2022-10-10T20:32:53.749Z,2.47
2022-10-10T20:35:23.121Z,2.73
2022-10-10T20:37:54.903Z,2.93
2022-10-10T20:40:23.693Z,2.67
2022-10-10T20:42:53.636Z,3.37
2022-10-10T20:45:26.222Z,3.70
2022-10-10T20:47:57.659Z,3.03
2022-10-10T20:50:26.306Z,3.27
2022-10-10T20:52:54.627Z,3.93
2022-10-10T20:55:25.945Z,3.37
2022-10-10T20:57:55.993Z,3.97
2022-10-10T21:00:24.286Z,3.60
2022-10-10T21:02:52.944Z,3.30
2022-10-10T21:05:22.975Z,2.87
2022-10-10T21:07:51.292Z,3.40
2022-10-10T21:10:19.702Z,2.67
2022-10-10T21:12:48.905Z,3.67
2022-10-10T21:15:18.378Z,2.60
2022-10-10T21:17:49.940Z,2.63
2022-10-10T21:20:18.573Z,3.30
2022-10-10T21:22:48.293Z,3.30
2022-10-10T21:25:16.747Z,3.07
2022-10-10T21:27:47.296Z,2.43
2022-10-10T21:30:15.684Z,2.80
2022-10-10T21:32:52.819Z,2.87
2022-10-10T21:35:21.148Z,2.47
2022-10-10T21:37:50.831Z,3.30
2022-10-10T21:40:21.427Z,2.70
2022-10-10T21:42:52.916Z,2.30
2022-10-10T21:45:21.127Z,2.53
2022-10-10T21:47:49.609Z,1.80
2022-10-10T21:50:18.665Z,1.90
2022-10-10T21:52:47.235Z,2.30
2022-10-10T21:55:17.617Z,2.20
2022-10-10T21:57:46.216Z,2.23
2022-10-10T22:00:18.056Z,1.87
2022-10-10T22:02:47.812Z,2.63
2022-10-10T22:05:18.316Z,2.03
2022-10-10T22:07:46.790Z,2.17
2022-10-10T22:10:23.834Z,2.40
2022-10-10T22:12:57.441Z,3.30
2022-10-10T22:15:32.707Z,1.93
2022-10-10T22:18:00.932Z,2.20
2022-10-10T22:20:29.295Z,2.40
2022-10-10T22:23:03.726Z,2.33
2022-10-10T22:25:33.356Z,2.00
2022-10-10T22:28:06.037Z,1.93
2022-10-10T22:30:34.750Z,2.40
2022-10-10T22:33:08.066Z,2.00
2022-10-10T22:35:36.768Z,1.90
2022-10-10T22:38:06.079Z,2.27
2022-10-10T22:40:35.685Z,1.97
2022-10-10T22:43:03.951Z,2.37
2022-10-10T22:45:33.891Z,2.43
2022-10-10T22:48:02.604Z,2.07
2022-10-10T22:50:34.680Z,2.57
2022-10-10T22:53:04.543Z,1.93
2022-10-10T22:55:32.984Z,2.97
2022-10-10T22:58:02.694Z,1.80
2022-10-10T23:00:31.117Z,2.43
2022-10-10T23:02:59.331Z,2.47
2022-10-10T23:05:27.735Z,2.00
2022-10-10T23:07:57.275Z,1.83
2022-10-10T23:10:25.650Z,1.70
2022-10-10T23:12:54.438Z,2.17
2022-10-10T23:15:24.101Z,2.27
2022-10-10T23:17:52.570Z,2.30
2022-10-10T23:20:21.074Z,3.17
2022-10-10T23:22:49.485Z,3.03
2022-10-10T23:25:20.083Z,3.53
2022-10-10T23:27:49.693Z,3.07
2022-10-10T23:30:18.094Z,2.27
2022-10-10T23:32:50.110Z,2.50
2022-10-10T23:35:18.674Z,2.70
2022-10-10T23:37:47.043Z,2.57
2022-10-10T23:40:15.450Z,3.00
2022-10-10T23:42:46.000Z,2.20
2022-10-10T23:45:17.968Z,2.20
2022-10-10T23:47:47.807Z,2.40
2022-10-10T23:50:15.984Z,3.80
2022-10-10T23:52:47.577Z,2.53
2022-10-10T23:55:21.123Z,2.10
2022-10-10T23:57:49.403Z,2.33
